createdAt,value
2022-11-26T00:02:22.000Z,276.59
2022-11-26T00:03:49.000Z,276.59
2022-11-26T00:05:55.000Z,276.52
2022-11-26T00:07:21.000Z,276.52
2022-11-26T00:09:28.000Z,276.52
2022-11-26T00:10:54.000Z,276.52
2022-11-26T00:13:00.000Z,276.46
2022-11-26T00:14:27.000Z,276.4
2022-11-26T00:16:33.000Z,276.27
2022-11-26T00:17:59.000Z,276.27
2022-11-26T00:20:06.000Z,276.21
2022-11-26T00:21:32.000Z,276.21
2022-11-26T00:23:38.000Z,276.21
2022-11-26T00:25:05.000Z,276.21
2022-11-26T00:27:11.000Z,276.15
2022-11-26T00:28:37.000Z,276.15
2022-11-26T00:30:43.000Z,276.09
2022-11-26T00:32:10.000Z,276.02
2022-11-26T00:34:16.000Z,276.09
2022-11-26T00:35:43.000Z,275.96
2022-11-26T00:37:49.000Z,276.02
2022-11-26T00:40:40.000Z,275.96
2022-11-26T00:42:06.000Z,275.96
2022-11-26T00:44:12.000Z,275.96
2022-11-26T00:45:39.000Z,275.96
2022-11-26T00:47:45.000Z,275.96
2022-11-26T00:49:12.000Z,275.9
2022-11-26T00:51:18.000Z,275.96
2022-11-26T00:52:44.000Z,275.9
2022-11-26T00:54:50.000Z,275.9
2022-11-26T00:56:17.000Z,275.9
2022-11-26T00:58:23.000Z,275.84
2022-11-26T00:59:49.000Z,275.84
2022-11-26T01:01:55.000Z,275.84
2022-11-26T01:03:22.000Z,275.84
2022-11-26T01:05:28.000Z,275.9
2022-11-26T01:06:55.000Z,275.9
2022-11-26T01:09:01.000Z,275.9
2022-11-26T01:10:27.000Z,275.9
2022-11-26T01:12:34.000Z,275.9
2022-11-26T01:14:00.000Z,275.96
2022-11-26T01:16:06.000Z,275.96
2022-11-26T01:18:57.000Z,275.96
2022-11-26T01:20:24.000Z,275.96
2022-11-26T01:22:30.000Z,275.96
2022-11-26T01:23:57.000Z,275.96
2022-11-26T01:26:03.000Z,275.96
2022-11-26T01:27:31.000Z,275.96
2022-11-26T01:29:37.000Z,275.96
2022-11-26T01:31:03.000Z,275.96
2022-11-26T01:33:09.000Z,275.96
2022-11-26T01:34:36.000Z,275.96
2022-11-26T01:36:42.000Z,275.96
2022-11-26T01:38:09.000Z,276.02
2022-11-26T01:40:15.000Z,275.96
2022-11-26T01:41:41.000Z,275.96
2022-11-26T01:43:48.000Z,275.96
2022-11-26T01:45:14.000Z,276.02
2022-11-26T01:47:20.000Z,275.96
2022-11-26T01:48:47.000Z,275.96
2022-11-26T01:50:53.000Z,275.9
2022-11-26T01:52:19.000Z,275.9
2022-11-26T01:54:26.000Z,275.96
2022-11-26T01:57:17.000Z,275.96
2022-11-26T01:58:43.000Z,275.96
2022-11-26T02:00:49.000Z,275.96
2022-11-26T02:02:16.000Z,276.02
2022-11-26T02:04:22.000Z,276.02
2022-11-26T02:05:49.000Z,276.09
2022-11-26T02:07:55.000Z,276.02
2022-11-26T02:09:21.000Z,276.02
2022-11-26T02:11:28.000Z,276.09
2022-11-26T02:12:54.000Z,276.09
2022-11-26T02:15:00.000Z,276.09
2022-11-26T02:16:27.000Z,276.09
2022-11-26T02:18:33.000Z,276.09
2022-11-26T02:19:59.000Z,276.09
2022-11-26T02:22:05.000Z,276.09
2022-11-26T02:23:32.000Z,276.15
2022-11-26T02:25:38.000Z,276.15
2022-11-26T02:27:05.000Z,276.15
2022-11-26T02:29:11.000Z,276.21
2022-11-26T02:30:37.000Z,276.21
2022-11-26T02:32:43.000Z,276.21
2022-11-26T02:35:35.000Z,276.15
2022-11-26T02:37:01.000Z,276.21
2022-11-26T02:39:07.000Z,276.27
2022-11-26T02:40:34.000Z,276.34
2022-11-26T02:42:40.000Z,276.4
2022-11-26T02:44:06.000Z,276.4
2022-11-26T02:46:12.000Z,276.46
2022-11-26T02:47:39.000Z,276.52
2022-11-26T02:49:45.000Z,276.59
2022-11-26T02:51:12.000Z,276.59
2022-11-26T02:53:18.000Z,276.46
2022-11-26T02:54:44.000Z,276.65
2022-11-26T02:56:51.000Z,276.52
2022-11-26T02:58:17.000Z,276.65
2022-11-26T03:00:23.000Z,276.65
2022-11-26T03:01:50.000Z,276.59
2022-11-26T03:03:56.000Z,276.46
2022-11-26T03:05:22.000Z,276.46
2022-11-26T03:07:29.000Z,276.4
2022-11-26T03:08:55.000Z,276.4
2022-11-26T03:11:01.000Z,276.4
2022-11-26T03:13:53.000Z,276.34
2022-11-26T03:15:19.000Z,276.34
2022-11-26T03:17:25.000Z,276.27
2022-11-26T03:18:52.000Z,276.21
2022-11-26T03:20:58.000Z,276.21
2022-11-26T03:22:24.000Z,276.21
2022-11-26T03:24:30.000Z,276.15
2022-11-26T03:25:57.000Z,276.09
2022-11-26T03:28:03.000Z,276.09
2022-11-26T03:29:29.000Z,276.09
2022-11-26T03:31:35.000Z,276.02
2022-11-26T03:33:02.000Z,276.02
2022-11-26T03:35:08.000Z,276.02
2022-11-26T03:36:35.000Z,276.02
2022-11-26T03:38:41.000Z,275.96
2022-11-26T03:40:07.000Z,276.02
2022-11-26T03:42:13.000Z,276.02
2022-11-26T03:43:40.000Z,276.02
2022-11-26T03:45:46.000Z,275.96
2022-11-26T03:47:13.000Z,275.96
2022-11-26T03:49:19.000Z,275.96
2022-11-26T03:52:10.000Z,275.84
2022-11-26T03:53:36.000Z,275.84
2022-11-26T03:55:43.000Z,275.77
2022-11-26T03:57:09.000Z,275.71
2022-11-26T03:59:15.000Z,275.71
2022-11-26T04:00:42.000Z,275.59
2022-11-26T04:02:48.000Z,275.59
2022-11-26T04:04:14.000Z,275.59
2022-11-26T04:06:20.000Z,275.59
2022-11-26T04:07:47.000Z,275.46
2022-11-26T04:09:53.000Z,275.52
2022-11-26T04:11:20.000Z,275.46
2022-11-26T04:13:26.000Z,275.4
2022-11-26T04:14:52.000Z,275.34
2022-11-26T04:16:58.000Z,275.34
2022-11-26T04:18:25.000Z,275.4
2022-11-26T04:20:31.000Z,275.34
2022-11-26T04:21:58.000Z,275.27
2022-11-26T04:24:04.000Z,275.27
2022-11-26T04:25:30.000Z,275.27
2022-11-26T04:27:37.000Z,275.15
2022-11-26T04:30:28.000Z,275.09
2022-11-26T04:31:54.000Z,275.09
2022-11-26T04:34:00.000Z,275.09
2022-11-26T04:35:27.000Z,275.15
2022-11-26T04:37:33.000Z,275.15
2022-11-26T04:39:00.000Z,275.02
2022-11-26T04:41:06.000Z,275.02
2022-11-26T04:42:32.000Z,274.96
2022-11-26T04:44:38.000Z,274.9
2022-11-26T04:46:05.000Z,274.84
2022-11-26T04:48:11.000Z,274.77
2022-11-26T04:49:38.000Z,274.77
2022-11-26T04:51:44.000Z,274.71
2022-11-26T04:53:10.000Z,274.65
2022-11-26T04:55:16.000Z,274.59
2022-11-26T04:56:43.000Z,274.65
2022-11-26T04:58:49.000Z,274.65
2022-11-26T05:00:16.000Z,274.65
2022-11-26T05:02:22.000Z,274.77
2022-11-26T05:03:48.000Z,274.77
2022-11-26T05:05:54.000Z,274.77
2022-11-26T05:08:45.000Z,274.77
2022-11-26T05:10:12.000Z,274.77
2022-11-26T05:12:18.000Z,274.77
2022-11-26T05:13:45.000Z,274.71
2022-11-26T05:15:51.000Z,274.71
2022-11-26T05:17:17.000Z,274.65
2022-11-26T05:19:23.000Z,274.59
2022-11-26T05:20:50.000Z,274.52
2022-11-26T05:22:56.000Z,274.52
2022-11-26T05:24:23.000Z,274.46
2022-11-26T05:26:29.000Z,274.52
2022-11-26T05:27:55.000Z,274.46
2022-11-26T05:30:01.000Z,274.52
2022-11-26T05:31:28.000Z,274.46
2022-11-26T05:33:34.000Z,274.52
2022-11-26T05:35:00.000Z,274.65
2022-11-26T05:37:07.000Z,274.71
2022-11-26T05:38:33.000Z,274.77
2022-11-26T05:40:39.000Z,274.65
2022-11-26T05:42:06.000Z,274.59
2022-11-26T05:44:13.000Z,274.59
2022-11-26T05:47:04.000Z,274.52
2022-11-26T05:48:31.000Z,274.52
2022-11-26T05:50:37.000Z,274.52
2022-11-26T05:52:03.000Z,274.4
2022-11-26T05:54:10.000Z,274.46
2022-11-26T05:55:36.000Z,274.46
2022-11-26T05:57:42.000Z,274.46
2022-11-26T05:59:09.000Z,274.52
2022-11-26T06:01:15.000Z,274.4
2022-11-26T06:02:41.000Z,274.34
2022-11-26T06:04:48.000Z,274.4
2022-11-26T06:06:14.000Z,274.4
2022-11-26T06:08:20.000Z,274.4
2022-11-26T06:09:47.000Z,274.4
2022-11-26T06:11:53.000Z,274.34
2022-11-26T06:13:19.000Z,274.34
2022-11-26T06:15:25.000Z,274.4
2022-11-26T06:16:52.000Z,274.4
2022-11-26T06:18:58.000Z,274.27
2022-11-26T06:20:25.000Z,274.34
2022-11-26T06:22:31.000Z,274.27
2022-11-26T06:25:22.000Z,274.27
2022-11-26T06:26:48.000Z,274.27
2022-11-26T06:28:54.000Z,274.34
2022-11-26T06:30:21.000Z,274.27
2022-11-26T06:32:27.000Z,274.27
2022-11-26T06:33:53.000Z,274.27
2022-11-26T06:36:00.000Z,274.27
2022-11-26T06:37:26.000Z,274.21
2022-11-26T06:39:32.000Z,274.15
2022-11-26T06:40:59.000Z,274.15
2022-11-26T06:43:05.000Z,274.15
2022-11-26T06:44:31.000Z,274.15
2022-11-26T06:46:37.000Z,274.09
2022-11-26T06:48:04.000Z,273.96
2022-11-26T06:50:10.000Z,273.9
2022-11-26T06:51:36.000Z,273.84
2022-11-26T06:53:43.000Z,273.9
2022-11-26T06:55:09.000Z,273.9
2022-11-26T06:57:15.000Z,273.84
2022-11-26T06:58:42.000Z,273.9
2022-11-26T07:00:48.000Z,273.84
2022-11-26T07:03:39.000Z,273.77
2022-11-26T07:05:05.000Z,273.77
2022-11-26T07:07:11.000Z,273.65
2022-11-26T07:08:38.000Z,273.71
2022-11-26T07:10:44.000Z,273.65
2022-11-26T07:12:13.000Z,273.65
2022-11-26T07:14:19.000Z,273.71
2022-11-26T07:15:46.000Z,273.77
2022-11-26T07:17:52.000Z,273.77
2022-11-26T07:19:19.000Z,273.71
2022-11-26T07:21:25.000Z,273.71
2022-11-26T07:22:51.000Z,273.71
2022-11-26T07:24:57.000Z,273.71
2022-11-26T07:26:24.000Z,273.71
2022-11-26T07:28:30.000Z,273.77
2022-11-26T07:29:56.000Z,273.84
2022-11-26T07:32:03.000Z,273.84
2022-11-26T07:33:29.000Z,273.84
2022-11-26T07:35:35.000Z,273.71
2022-11-26T07:37:02.000Z,273.77
2022-11-26T07:39:08.000Z,273.77
2022-11-26T07:41:59.000Z,273.9
2022-11-26T07:43:26.000Z,273.96
2022-11-26T07:45:32.000Z,274.02
2022-11-26T07:46:58.000Z,274.02
2022-11-26T07:49:04.000Z,274.02
2022-11-26T07:50:31.000Z,274.02
2022-11-26T07:52:37.000Z,274.09
2022-11-26T07:54:03.000Z,274.15
2022-11-26T07:56:10.000Z,274.21
2022-11-26T07:57:36.000Z,274.15
2022-11-26T07:59:42.000Z,274.09
2022-11-26T08:01:09.000Z,274.09
2022-11-26T08:03:15.000Z,274.15
2022-11-26T08:04:41.000Z,274.15
2022-11-26T08:06:48.000Z,274.21
2022-11-26T08:08:14.000Z,274.21
2022-11-26T08:10:20.000Z,274.21
2022-11-26T08:11:47.000Z,274.27
2022-11-26T08:13:53.000Z,274.34
2022-11-26T08:15:20.000Z,274.34
2022-11-26T08:17:26.000Z,274.4
2022-11-26T08:20:17.000Z,274.4
2022-11-26T08:21:49.000Z,274.46
2022-11-26T08:23:55.000Z,274.46
2022-11-26T08:25:22.000Z,274.52
2022-11-26T08:27:28.000Z,274.52
2022-11-26T08:28:54.000Z,274.59
2022-11-26T08:31:00.000Z,274.65
2022-11-26T08:32:27.000Z,274.65
2022-11-26T08:34:33.000Z,274.65
2022-11-26T08:36:00.000Z,274.71
2022-11-26T08:38:11.000Z,274.77
2022-11-26T08:39:38.000Z,274.77
2022-11-26T08:41:44.000Z,274.84
2022-11-26T08:43:17.000Z,274.84
2022-11-26T08:45:23.000Z,274.84
2022-11-26T08:46:49.000Z,274.84
2022-11-26T08:48:55.000Z,274.84
2022-11-26T08:50:22.000Z,274.84
2022-11-26T08:52:28.000Z,274.9
2022-11-26T08:53:54.000Z,274.9
2022-11-26T08:56:01.000Z,274.9
2022-11-26T08:58:55.000Z,274.96
2022-11-26T09:00:22.000Z,274.96
2022-11-26T09:02:28.000Z,275.02
2022-11-26T09:03:54.000Z,275.02
2022-11-26T09:06:00.000Z,275.09
2022-11-26T09:07:27.000Z,275.09
2022-11-26T09:09:33.000Z,275.09
2022-11-26T09:11:00.000Z,275.09
2022-11-26T09:13:06.000Z,275.02
2022-11-26T09:14:32.000Z,275.09
2022-11-26T09:16:39.000Z,275.15
2022-11-26T09:18:05.000Z,275.21
2022-11-26T09:20:11.000Z,275.27
2022-11-26T09:21:38.000Z,275.34
2022-11-26T09:23:44.000Z,275.34
2022-11-26T09:25:11.000Z,275.46
2022-11-26T09:27:17.000Z,275.4
2022-11-26T09:28:43.000Z,275.46
2022-11-26T09:30:50.000Z,275.46
2022-11-26T09:32:16.000Z,275.52
2022-11-26T09:34:36.000Z,275.59
2022-11-26T09:37:28.000Z,275.65
2022-11-26T09:38:55.000Z,275.71
2022-11-26T09:41:01.000Z,275.77
2022-11-26T09:42:27.000Z,275.84
2022-11-26T09:44:33.000Z,275.9
2022-11-26T09:46:00.000Z,275.96
2022-11-26T09:48:06.000Z,276.02
2022-11-26T09:49:33.000Z,276.02
2022-11-26T09:51:39.000Z,276.15
2022-11-26T09:53:05.000Z,276.21
2022-11-26T09:55:11.000Z,276.15
2022-11-26T09:56:38.000Z,276.27
2022-11-26T09:58:44.000Z,276.34
2022-11-26T10:00:10.000Z,276.34
2022-11-26T10:02:17.000Z,276.34
2022-11-26T10:03:43.000Z,276.34
2022-11-26T10:05:49.000Z,276.4
2022-11-26T10:07:16.000Z,276.46
2022-11-26T10:09:22.000Z,276.65
2022-11-26T10:10:48.000Z,276.65
2022-11-26T10:12:54.000Z,276.65
2022-11-26T10:16:07.000Z,276.71
2022-11-26T10:17:34.000Z,276.77
2022-11-26T10:19:40.000Z,276.77
2022-11-26T10:21:07.000Z,276.96
2022-11-26T10:23:13.000Z,276.96
2022-11-26T10:24:39.000Z,277.02
2022-11-26T10:26:46.000Z,277.09
2022-11-26T10:28:13.000Z,277.21
2022-11-26T10:30:19.000Z,277.27
2022-11-26T10:31:45.000Z,277.4
2022-11-26T10:33:51.000Z,277.34
2022-11-26T10:35:18.000Z,277.4
2022-11-26T10:37:24.000Z,277.52
2022-11-26T10:38:51.000Z,277.59
2022-11-26T10:40:57.000Z,277.52
2022-11-26T10:42:23.000Z,277.59
2022-11-26T10:44:29.000Z,277.65
2022-11-26T10:45:56.000Z,277.71
2022-11-26T10:48:02.000Z,277.65
2022-11-26T10:49:29.000Z,277.71
2022-11-26T10:51:35.000Z,277.84
2022-11-26T10:54:26.000Z,277.9
2022-11-26T10:55:52.000Z,278.21
2022-11-26T10:57:58.000Z,278.34
2022-11-26T10:59:25.000Z,278.59
2022-11-26T11:01:31.000Z,278.77
2022-11-26T11:02:57.000Z,278.9
2022-11-26T11:05:04.000Z,278.96
2022-11-26T11:06:30.000Z,278.9
2022-11-26T11:08:36.000Z,279.09
2022-11-26T11:10:03.000Z,278.96
2022-11-26T11:12:09.000Z,278.96
2022-11-26T11:13:35.000Z,278.96
2022-11-26T11:15:41.000Z,279.02
2022-11-26T11:17:08.000Z,278.96
2022-11-26T11:19:14.000Z,278.96
2022-11-26T11:20:40.000Z,279.09
2022-11-26T11:22:47.000Z,279.21
2022-11-26T11:24:16.000Z,279.21
2022-11-26T11:26:22.000Z,279.27
2022-11-26T11:27:49.000Z,279.34
2022-11-26T11:29:55.000Z,279.52
2022-11-26T11:32:46.000Z,279.59
2022-11-26T11:34:12.000Z,279.52
2022-11-26T11:36:18.000Z,279.65
2022-11-26T11:37:45.000Z,279.65
2022-11-26T11:39:51.000Z,279.71
2022-11-26T11:41:17.000Z,279.84
2022-11-26T11:43:23.000Z,279.84
2022-11-26T11:44:50.000Z,279.77
2022-11-26T11:46:56.000Z,279.9
2022-11-26T11:48:23.000Z,279.9
2022-11-26T11:50:29.000Z,279.96
2022-11-26T11:51:55.000Z,279.9
2022-11-26T11:54:01.000Z,279.96
2022-11-26T11:55:28.000Z,279.77
2022-11-26T11:57:34.000Z,279.65
2022-11-26T11:59:01.000Z,279.71
2022-11-26T12:01:07.000Z,279.71
2022-11-26T12:02:33.000Z,279.71
2022-11-26T12:04:40.000Z,279.84
2022-11-26T12:06:07.000Z,279.84
2022-11-26T12:08:13.000Z,279.84
2022-11-26T12:11:04.000Z,279.77
2022-11-26T12:12:31.000Z,279.65
2022-11-26T12:14:37.000Z,279.71
2022-11-26T12:16:03.000Z,279.77
2022-11-26T12:18:09.000Z,279.77
2022-11-26T12:19:36.000Z,279.84
2022-11-26T12:21:42.000Z,279.96
2022-11-26T12:23:08.000Z,280.02
2022-11-26T12:25:19.000Z,280.02
2022-11-26T12:26:45.000Z,280.09
2022-11-26T12:28:52.000Z,279.84
2022-11-26T12:30:18.000Z,279.77
2022-11-26T12:32:24.000Z,279.71
2022-11-26T12:33:51.000Z,279.71
2022-11-26T12:35:57.000Z,279.77
2022-11-26T12:37:23.000Z,279.71
2022-11-26T12:39:30.000Z,279.71
2022-11-26T12:40:56.000Z,279.71
2022-11-26T12:43:02.000Z,279.59
2022-11-26T12:44:29.000Z,279.65
2022-11-26T12:46:35.000Z,279.65
2022-11-26T12:49:26.000Z,279.59
2022-11-26T12:50:52.000Z,279.65
2022-11-26T12:52:58.000Z,279.71
2022-11-26T12:54:25.000Z,279.65
2022-11-26T12:56:31.000Z,279.71
2022-11-26T12:57:57.000Z,279.77
2022-11-26T13:00:04.000Z,279.71
2022-11-26T13:01:30.000Z,279.71
2022-11-26T13:03:36.000Z,279.65
2022-11-26T13:05:03.000Z,279.59
2022-11-26T13:07:09.000Z,279.52
2022-11-26T13:08:36.000Z,279.52
2022-11-26T13:10:42.000Z,279.52
2022-11-26T13:12:08.000Z,279.59
2022-11-26T13:14:15.000Z,279.52
2022-11-26T13:15:41.000Z,279.52
2022-11-26T13:17:47.000Z,279.52
2022-11-26T13:19:14.000Z,279.52
2022-11-26T13:21:20.000Z,279.52
2022-11-26T13:22:46.000Z,279.52
2022-11-26T13:24:52.000Z,279.52
2022-11-26T13:27:43.000Z,279.52
2022-11-26T13:29:10.000Z,279.52
2022-11-26T13:31:16.000Z,279.59
2022-11-26T13:32:43.000Z,279.59
2022-11-26T13:34:49.000Z,279.59
2022-11-26T13:36:15.000Z,279.65
2022-11-26T13:38:21.000Z,279.71
2022-11-26T13:39:48.000Z,279.71
2022-11-26T13:41:54.000Z,279.71
2022-11-26T13:43:21.000Z,279.77
2022-11-26T13:45:27.000Z,279.77
2022-11-26T13:46:53.000Z,279.77
2022-11-26T13:49:00.000Z,279.77
2022-11-26T13:50:26.000Z,279.77
2022-11-26T13:52:32.000Z,279.71
2022-11-26T13:53:59.000Z,279.77
2022-11-26T13:56:05.000Z,279.77
2022-11-26T13:57:31.000Z,279.84
2022-11-26T13:59:37.000Z,279.71
2022-11-26T14:01:04.000Z,279.71
2022-11-26T14:03:10.000Z,279.71
2022-11-26T14:06:01.000Z,279.71
2022-11-26T14:07:32.000Z,279.71
2022-11-26T14:09:38.000Z,279.71
2022-11-26T14:11:05.000Z,279.71
2022-11-26T14:13:11.000Z,279.65
2022-11-26T14:14:38.000Z,279.65
2022-11-26T14:16:45.000Z,279.65
2022-11-26T14:18:11.000Z,279.65
2022-11-26T14:20:17.000Z,279.59
2022-11-26T14:21:44.000Z,279.59
2022-11-26T14:23:50.000Z,279.59
2022-11-26T14:25:16.000Z,279.52
2022-11-26T14:27:22.000Z,279.52
2022-11-26T14:28:49.000Z,279.52
2022-11-26T14:30:55.000Z,279.52
2022-11-26T14:32:22.000Z,279.46
2022-11-26T14:34:28.000Z,279.46
2022-11-26T14:35:54.000Z,279.46
2022-11-26T14:38:01.000Z,279.46
2022-11-26T14:39:27.000Z,279.4
2022-11-26T14:41:33.000Z,279.34
2022-11-26T14:44:24.000Z,279.27
2022-11-26T14:45:51.000Z,279.27
2022-11-26T14:47:57.000Z,279.27
2022-11-26T14:49:24.000Z,279.27
2022-11-26T14:51:30.000Z,279.21
2022-11-26T14:52:56.000Z,279.21
2022-11-26T14:55:02.000Z,279.15
2022-11-26T14:56:29.000Z,279.09
2022-11-26T14:58:35.000Z,279.09
2022-11-26T15:00:01.000Z,279.09
2022-11-26T15:02:07.000Z,279.09
2022-11-26T15:03:34.000Z,279.09
2022-11-26T15:05:40.000Z,279.02
2022-11-26T15:07:09.000Z,279.02
2022-11-26T15:09:15.000Z,279.02
2022-11-26T15:10:42.000Z,279.02
2022-11-26T15:12:48.000Z,279.02
2022-11-26T15:14:15.000Z,278.96
2022-11-26T15:16:21.000Z,278.96
2022-11-26T15:17:47.000Z,278.96
2022-11-26T15:19:54.000Z,278.84
2022-11-26T15:22:45.000Z,278.84
2022-11-26T15:24:11.000Z,278.84
2022-11-26T15:26:18.000Z,278.84
2022-11-26T15:27:44.000Z,278.84
2022-11-26T15:29:50.000Z,278.84
2022-11-26T15:31:17.000Z,278.84
2022-11-26T15:33:23.000Z,278.77
2022-11-26T15:34:49.000Z,278.77
2022-11-26T15:36:55.000Z,278.71
2022-11-26T15:38:22.000Z,278.71
2022-11-26T15:40:28.000Z,278.65
2022-11-26T15:41:55.000Z,278.59
2022-11-26T15:44:01.000Z,278.46
2022-11-26T15:45:27.000Z,278.4
2022-11-26T15:47:33.000Z,278.34
2022-11-26T15:49:00.000Z,278.34
2022-11-26T15:51:06.000Z,278.34
2022-11-26T15:52:32.000Z,278.27
2022-11-26T15:54:39.000Z,278.27
2022-11-26T15:56:36.000Z,278.27
2022-11-26T15:58:42.000Z,278.27
2022-11-26T16:01:34.000Z,278.27
2022-11-26T16:03:00.000Z,278.27
2022-11-26T16:05:06.000Z,278.21
2022-11-26T16:06:33.000Z,278.15
2022-11-26T16:08:39.000Z,278.09
2022-11-26T16:10:05.000Z,278.02
2022-11-26T16:12:11.000Z,278.02
2022-11-26T16:13:38.000Z,278.09
2022-11-26T16:15:44.000Z,278.02
2022-11-26T16:17:11.000Z,278.02
2022-11-26T16:19:17.000Z,278.02
2022-11-26T16:20:43.000Z,278.02
2022-11-26T16:22:49.000Z,278.02
2022-11-26T16:24:16.000Z,278.02
2022-11-26T16:26:22.000Z,278.02
2022-11-26T16:27:49.000Z,278.02
2022-11-26T16:29:55.000Z,278.02
2022-11-26T16:31:21.000Z,277.96
2022-11-26T16:33:28.000Z,278.02
2022-11-26T16:34:54.000Z,278.02
2022-11-26T16:37:00.000Z,278.02
2022-11-26T16:39:51.000Z,277.96
2022-11-26T16:41:18.000Z,277.96
2022-11-26T16:43:24.000Z,277.9
2022-11-26T16:44:50.000Z,277.84
2022-11-26T16:46:56.000Z,277.84
2022-11-26T16:48:23.000Z,277.84
2022-11-26T16:50:29.000Z,277.84
2022-11-26T16:51:56.000Z,277.84
2022-11-26T16:54:02.000Z,277.84
2022-11-26T16:55:28.000Z,277.84
2022-11-26T16:57:34.000Z,277.77
2022-11-26T16:59:01.000Z,277.71
2022-11-26T17:01:07.000Z,277.65
2022-11-26T17:02:33.000Z,277.65
2022-11-26T17:04:40.000Z,277.52
2022-11-26T17:06:06.000Z,277.59
2022-11-26T17:08:13.000Z,277.65
2022-11-26T17:09:39.000Z,277.65
2022-11-26T17:11:46.000Z,277.65
2022-11-26T17:13:12.000Z,277.65
2022-11-26T17:15:18.000Z,277.65
2022-11-26T17:18:09.000Z,277.71
2022-11-26T17:19:36.000Z,277.77
2022-11-26T17:21:42.000Z,277.9
2022-11-26T17:23:09.000Z,277.9
2022-11-26T17:25:15.000Z,277.96
2022-11-26T17:26:41.000Z,277.96
2022-11-26T17:28:47.000Z,278.02
2022-11-26T17:30:14.000Z,278.02
2022-11-26T17:32:20.000Z,278.02
2022-11-26T17:33:47.000Z,278.02
2022-11-26T17:35:53.000Z,278.09
2022-11-26T17:37:19.000Z,278.02
2022-11-26T17:39:25.000Z,278.02
2022-11-26T17:40:52.000Z,278.15
2022-11-26T17:42:58.000Z,278.15
2022-11-26T17:44:24.000Z,278.15
2022-11-26T17:46:31.000Z,278.09
2022-11-26T17:48:18.000Z,278.02
2022-11-26T17:50:30.000Z,278.02
2022-11-26T17:51:57.000Z,278.02
2022-11-26T17:54:03.000Z,277.96
2022-11-26T17:56:54.000Z,278.02
2022-11-26T17:58:21.000Z,278.02
2022-11-26T18:00:27.000Z,278.09
2022-11-26T18:01:53.000Z,278.09
2022-11-26T18:04:00.000Z,278.15
2022-11-26T18:05:26.000Z,278.15
2022-11-26T18:07:32.000Z,278.15
2022-11-26T18:08:59.000Z,278.15
2022-11-26T18:11:05.000Z,278.15
2022-11-26T18:12:32.000Z,278.15
2022-11-26T18:14:38.000Z,278.15
2022-11-26T18:16:04.000Z,278.15
2022-11-26T18:18:10.000Z,278.15
2022-11-26T18:19:37.000Z,278.15
2022-11-26T18:21:47.000Z,278.15
2022-11-26T18:23:14.000Z,278.15
2022-11-26T18:25:20.000Z,278.09
2022-11-26T18:26:46.000Z,278.15
2022-11-26T18:28:52.000Z,278.09
2022-11-26T18:30:19.000Z,278.09
2022-11-26T18:32:25.000Z,278.09
2022-11-26T18:35:16.000Z,278.15
2022-11-26T18:36:43.000Z,278.15
2022-11-26T18:38:56.000Z,278.09
2022-11-26T18:40:22.000Z,278.09
2022-11-26T18:42:28.000Z,278.09
2022-11-26T18:44:02.000Z,278.09
2022-11-26T18:47:41.000Z,278.02
2022-11-26T18:48:15.000Z,278.09
2022-11-26T18:49:41.000Z,278.09
2022-11-26T18:51:51.000Z,278.09
2022-11-26T18:53:18.000Z,278.09
2022-11-26T18:55:24.000Z,278.09
2022-11-26T18:56:51.000Z,278.09
2022-11-26T18:58:57.000Z,278.09
2022-11-26T19:00:23.000Z,278.09
2022-11-26T19:02:29.000Z,278.15
2022-11-26T19:03:56.000Z,278.09
2022-11-26T19:06:02.000Z,278.02
2022-11-26T19:07:29.000Z,278.09
2022-11-26T19:09:35.000Z,278.02
2022-11-26T19:11:02.000Z,277.96
2022-11-26T19:13:08.000Z,277.96
2022-11-26T19:15:53.000Z,277.96
2022-11-26T19:17:19.000Z,277.96
2022-11-26T19:19:25.000Z,277.9
2022-11-26T19:20:52.000Z,277.9
2022-11-26T19:22:58.000Z,277.84
2022-11-26T19:24:25.000Z,277.84
2022-11-26T19:26:31.000Z,277.84
2022-11-26T19:27:57.000Z,277.77
2022-11-26T19:30:09.000Z,277.77
2022-11-26T19:31:35.000Z,277.77
2022-11-26T19:33:41.000Z,277.77
2022-11-26T19:35:08.000Z,277.77
2022-11-26T19:37:14.000Z,277.71
2022-11-26T19:38:40.000Z,277.71
2022-11-26T19:40:46.000Z,277.65
2022-11-26T19:42:13.000Z,277.59
2022-11-26T19:44:19.000Z,277.52
2022-11-26T19:45:45.000Z,277.52
2022-11-26T19:47:52.000Z,277.52
2022-11-26T19:49:18.000Z,277.59
2022-11-26T19:51:25.000Z,277.59
2022-11-26T19:54:16.000Z,277.65
2022-11-26T19:55:42.000Z,277.71
2022-11-26T19:57:48.000Z,277.65
2022-11-26T19:59:15.000Z,277.65
2022-11-26T20:01:21.000Z,277.65
2022-11-26T20:02:48.000Z,277.65
2022-11-26T20:04:54.000Z,277.65
2022-11-26T20:06:21.000Z,277.65
2022-11-26T20:08:27.000Z,277.65
2022-11-26T20:09:53.000Z,277.65
2022-11-26T20:11:59.000Z,277.65
2022-11-26T20:13:26.000Z,277.71
2022-11-26T20:15:32.000Z,277.84
2022-11-26T20:16:59.000Z,277.84
2022-11-26T20:19:05.000Z,277.77
2022-11-26T20:20:32.000Z,277.77
2022-11-26T20:22:38.000Z,277.77
2022-11-26T20:24:04.000Z,277.77
2022-11-26T20:26:10.000Z,277.77
2022-11-26T20:27:37.000Z,277.77
2022-11-26T20:29:43.000Z,277.77
2022-11-26T20:32:34.000Z,277.77
2022-11-26T20:34:01.000Z,277.77
2022-11-26T20:36:07.000Z,277.77
2022-11-26T20:37:33.000Z,277.77
2022-11-26T20:39:40.000Z,277.71
2022-11-26T20:41:07.000Z,277.71
2022-11-26T20:43:13.000Z,277.71
2022-11-26T20:44:39.000Z,277.71
2022-11-26T20:46:45.000Z,277.71
2022-11-26T20:48:12.000Z,277.71
2022-11-26T20:50:18.000Z,277.71
2022-11-26T20:51:45.000Z,277.71
2022-11-26T20:53:51.000Z,277.71
2022-11-26T20:55:17.000Z,277.71
2022-11-26T20:57:23.000Z,277.65
2022-11-26T20:58:50.000Z,277.71
2022-11-26T21:00:56.000Z,277.71
2022-11-26T21:02:23.000Z,277.65
2022-11-26T21:04:29.000Z,277.65
2022-11-26T21:05:55.000Z,277.65
2022-11-26T21:08:02.000Z,277.65
2022-11-26T21:10:53.000Z,277.65
2022-11-26T21:12:19.000Z,277.65
2022-11-26T21:14:25.000Z,277.65
2022-11-26T21:15:52.000Z,277.65
2022-11-26T21:17:58.000Z,277.65
2022-11-26T21:19:24.000Z,277.65
2022-11-26T21:21:31.000Z,277.59
2022-11-26T21:22:57.000Z,277.59
2022-11-26T21:25:03.000Z,277.59
2022-11-26T21:26:30.000Z,277.59
2022-11-26T21:28:36.000Z,277.59
2022-11-26T21:30:02.000Z,277.59
2022-11-26T21:32:08.000Z,277.52
2022-11-26T21:33:35.000Z,277.52
2022-11-26T21:35:41.000Z,277.52
2022-11-26T21:37:07.000Z,277.52
2022-11-26T21:39:13.000Z,277.46
2022-11-26T21:40:40.000Z,277.34
2022-11-26T21:42:46.000Z,277.34
2022-11-26T21:44:12.000Z,277.27
2022-11-26T21:46:19.000Z,277.27
2022-11-26T21:49:10.000Z,277.27
2022-11-26T21:50:36.000Z,277.27
2022-11-26T21:52:43.000Z,277.21
2022-11-26T21:54:09.000Z,277.21
2022-11-26T21:56:15.000Z,277.15
2022-11-26T21:57:42.000Z,277.09
2022-11-26T21:59:48.000Z,277.09
2022-11-26T22:01:14.000Z,277.09
2022-11-26T22:03:21.000Z,277.02
2022-11-26T22:04:47.000Z,276.96
2022-11-26T22:06:54.000Z,277.02
2022-11-26T22:08:21.000Z,277.09
2022-11-26T22:10:27.000Z,277.02
2022-11-26T22:12:00.000Z,277.09
2022-11-26T22:14:06.000Z,277.02
2022-11-26T22:15:33.000Z,277.02
2022-11-26T22:17:39.000Z,276.96
2022-11-26T22:19:06.000Z,276.9
2022-11-26T22:21:12.000Z,276.77
2022-11-26T22:22:38.000Z,276.84
2022-11-26T22:24:44.000Z,276.84
2022-11-26T22:27:35.000Z,276.84
2022-11-26T22:29:02.000Z,276.9
2022-11-26T22:31:08.000Z,276.9
2022-11-26T22:32:35.000Z,276.9
2022-11-26T22:34:41.000Z,276.9
2022-11-26T22:36:07.000Z,276.96
2022-11-26T22:38:13.000Z,276.96
2022-11-26T22:39:40.000Z,277.02
2022-11-26T22:41:46.000Z,277.09
2022-11-26T22:43:13.000Z,277.21
2022-11-26T22:45:19.000Z,277.27
2022-11-26T22:46:45.000Z,277.34
2022-11-26T22:48:51.000Z,277.34
2022-11-26T22:50:18.000Z,277.34
2022-11-26T22:52:24.000Z,277.34